Time;durP1;ratioP1;P1;durP2;ratioP2;P2;SDS_P1;SDS_P2;PMS_P1;PMS_P2;Temp;Humidity;BMP_temperature;BMP_pressure;BME280_temperature;BME280_humidity;BME280_pressure;Samples;Min_cycle;Max_cycle;Signal;HPM_P1;HPM_P2
2022/10/09 00:01:00;;;;;;;;;;;9.90;99.90;;;;;;5031919;28;19919;-69
2022/10/09 00:03:26;;;;;;;;;;;9.90;99.90;;;;;;5032470;28;19916;-68
2022/10/09 00:05:51;;;;;;;;;;;9.90;99.90;;;;;;5032584;28;20456;-69
2022/10/09 00:08:17;;;;;;;;;;;9.90;99.90;;;;;;5032897;28;19909;-69
2022/10/09 00:10:42;;;;;;;;;;;9.80;99.90;;;;;;5031935;28;19967;-69
2022/10/09 00:13:08;;;;;;;;;;;9.90;99.90;;;;;;5032129;28;20359;-70
2022/10/09 00:15:38;;;;;;;;;;;9.80;99.90;;;;;;5031477;28;20305;-69
2022/10/09 00:18:04;;;;;;;;;;;9.90;99.90;;;;;;5032281;28;19991;-69
2022/10/09 00:20:29;;;;;;;;;;;9.80;99.90;;;;;;5031883;28;19986;-69
2022/10/09 00:22:55;;;;;;;;;;;9.80;99.90;;;;;;5032334;28;19920;-69
2022/10/09 00:25:20;;;;;;;;;;;9.80;99.90;;;;;;5031989;28;19972;-70
2022/10/09 00:27:46;;;;;;;;;;;9.80;99.90;;;;;;5032415;28;20313;-69
2022/10/09 00:30:11;;;;;;;;;;;9.80;99.90;;;;;;5031804;28;20020;-70
2022/10/09 00:32:37;;;;;;;;;;;9.70;99.90;;;;;;5032218;28;19909;-69
2022/10/09 00:35:02;;;;;;;;;;;9.70;99.90;;;;;;5032033;28;19941;-70
2022/10/09 00:37:28;;;;;;;;;;;9.60;99.90;;;;;;5032215;28;19916;-69
2022/10/09 00:39:53;;;;;;;;;;;9.70;99.90;;;;;;5030339;28;19959;-69
2022/10/09 00:42:20;;;;;;;;;;;9.60;99.90;;;;;;5031604;28;19917;-68
2022/10/09 00:44:55;;;;;;;;;;;9.60;99.90;;;;;;5024833;28;19917;-69
2022/10/09 00:47:21;;;;;;;;;;;9.60;99.90;;;;;;5031245;28;19913;-70
2022/10/09 00:49:48;;;;;;;;;;;9.60;99.90;;;;;;5031384;28;20244;-67
2022/10/09 00:52:14;;;;;;;;;;;9.50;99.90;;;;;;5031712;28;20282;-68
2022/10/09 00:54:39;;;;;;;;;;;9.50;99.90;;;;;;5031156;28;19905;-70
2022/10/09 00:57:05;;;;;;;;;;;9.50;99.90;;;;;;5031365;28;19905;-70
2022/10/09 00:59:31;;;;;;;;;;;9.40;99.90;;;;;;5031745;28;19908;-70
2022/10/09 01:01:56;;;;;;;;;;;9.40;99.90;;;;;;5031057;28;20358;-69
2022/10/09 01:04:23;;;;;;;;;;;9.40;99.90;;;;;;5029217;28;20378;-67
2022/10/09 01:07:06;;;;;;;;;;;9.40;99.90;;;;;;5030976;28;19920;-68
2022/10/09 01:09:44;;;;;;;;;;;9.30;99.90;;;;;;5029455;28;19905;-70
2022/10/09 01:12:29;;;;;;;;;;;9.30;99.90;;;;;;5029615;28;19917;-68
2022/10/09 01:15:07;;;;;;;;;;;9.30;99.90;;;;;;5030811;28;20455;-69
2022/10/09 01:17:54;;;;;;;;;;;9.30;99.90;;;;;;5030954;28;19951;-69
2022/10/09 01:20:24;;;;;;;;;;;9.30;99.90;;;;;;5025580;28;19909;-68
2022/10/09 01:22:56;;;;;;;;;;;9.40;99.90;;;;;;5030704;28;19913;-68
2022/10/09 01:25:53;;;;;;;;;;;9.40;99.90;;;;;;5031112;28;19905;-68
2022/10/09 01:28:19;;;;;;;;;;;9.40;99.90;;;;;;4999836;28;19923;-69
2022/10/09 01:30:46;;;;;;;;;;;9.40;99.90;;;;;;5028596;28;19944;-70
2022/10/09 01:33:12;;;;;;;;;;;9.50;99.90;;;;;;5029559;28;19936;-69
2022/10/09 01:35:38;;;;;;;;;;;9.50;99.90;;;;;;5030549;28;20015;-68
2022/10/09 01:38:03;;;;;;;;;;;9.60;99.90;;;;;;5030038;28;20684;-68
2022/10/09 01:40:29;;;;;;;;;;;9.60;99.90;;;;;;5030534;28;20012;-68
2022/10/09 01:42:55;;;;;;;;;;;9.60;99.90;;;;;;5029940;28;19948;-68
2022/10/09 01:45:20;;;;;;;;;;;9.60;99.90;;;;;;5029068;28;19919;-67
2022/10/09 01:47:46;;;;;;;;;;;9.70;99.90;;;;;;5028363;28;20418;-69
2022/10/09 01:50:20;;;;;;;;;;;9.70;99.90;;;;;;5030826;28;19916;-68
2022/10/09 01:52:48;;;;;;;;;;;9.60;99.90;;;;;;5030915;28;19995;-68
2022/10/09 01:55:16;;;;;;;;;;;9.70;99.90;;;;;;5030374;28;19951;-69
2022/10/09 01:57:41;;;;;;;;;;;9.60;99.90;;;;;;5027564;28;19909;-70
2022/10/09 02:00:09;;;;;;;;;;;9.60;99.90;;;;;;5028863;28;19917;-69
2022/10/09 02:02:34;;;;;;;;;;;9.60;99.90;;;;;;5029566;28;20275;-69
2022/10/09 02:05:00;;;;;;;;;;;9.60;99.90;;;;;;5028192;28;19909;-67
2022/10/09 02:07:26;;;;;;;;;;;9.60;99.90;;;;;;5030605;28;19909;-69
2022/10/09 02:09:52;;;;;;;;;;;9.60;99.90;;;;;;5021693;28;19905;-69
2022/10/09 02:12:19;;;;;;;;;;;9.60;99.90;;;;;;5030158;28;20004;-68
2022/10/09 02:14:44;;;;;;;;;;;9.60;99.90;;;;;;5030208;28;19983;-68
2022/10/09 02:17:16;;;;;;;;;;;9.60;99.90;;;;;;5030551;28;19972;-68
2022/10/09 02:19:49;;;;;;;;;;;9.60;99.90;;;;;;5018596;28;20416;-69
2022/10/09 02:22:17;;;;;;;;;;;9.70;99.90;;;;;;5029314;28;19917;-68
2022/10/09 02:24:43;;;;;;;;;;;9.70;99.90;;;;;;5027466;28;19928;-69
2022/10/09 02:27:09;;;;;;;;;;;9.60;99.90;;;;;;5029591;28;19909;-68
2022/10/09 02:29:36;;;;;;;;;;;9.60;99.90;;;;;;5029631;28;20370;-68
2022/10/09 02:32:02;;;;;;;;;;;9.70;99.90;;;;;;5029978;28;20754;-68
2022/10/09 02:34:27;;;;;;;;;;;9.70;99.90;;;;;;5029770;28;19908;-67
2022/10/09 02:36:53;;;;;;;;;;;9.70;99.90;;;;;;5030086;28;19913;-67
2022/10/09 02:39:18;;;;;;;;;;;9.70;99.90;;;;;;5029652;28;19975;-68
2022/10/09 02:41:44;;;;;;;;;;;9.70;99.90;;;;;;5029213;28;19913;-67
2022/10/09 02:44:09;;;;;;;;;;;9.70;99.90;;;;;;5031540;28;20000;-67
2022/10/09 02:46:37;;;;;;;;;;;9.70;99.90;;;;;;5033604;28;20449;-68
2022/10/09 02:49:03;;;;;;;;;;;9.60;99.90;;;;;;5033820;28;19963;-68
2022/10/09 02:51:28;;;;;;;;;;;9.60;99.90;;;;;;5034186;28;19909;-68
2022/10/09 02:53:54;;;;;;;;;;;9.60;99.90;;;;;;5033870;28;19913;-68
2022/10/09 02:56:20;;;;;;;;;;;9.60;99.90;;;;;;5033481;28;19995;-68
2022/10/09 02:58:46;;;;;;;;;;;9.60;99.90;;;;;;5033383;28;19913;-68
2022/10/09 03:01:12;;;;;;;;;;;9.60;99.90;;;;;;5033486;28;19916;-69
2022/10/09 03:03:37;;;;;;;;;;;9.60;99.90;;;;;;5032158;28;19936;-69
2022/10/09 03:06:10;;;;;;;;;;;9.60;99.90;;;;;;5033356;28;19912;-68
2022/10/09 03:08:36;;;;;;;;;;;9.60;99.90;;;;;;5033279;28;19939;-68
2022/10/09 03:11:02;;;;;;;;;;;9.60;99.90;;;;;;5031933;28;19971;-68
2022/10/09 03:13:27;;;;;;;;;;;9.60;99.90;;;;;;5033548;28;19912;-68
2022/10/09 03:15:53;;;;;;;;;;;9.60;99.90;;;;;;5033433;28;19909;-68
2022/10/09 03:18:18;;;;;;;;;;;9.60;99.90;;;;;;5033266;28;19909;-68
2022/10/09 03:20:44;;;;;;;;;;;9.60;99.90;;;;;;5033532;28;19967;-68
2022/10/09 03:23:10;;;;;;;;;;;9.60;99.90;;;;;;5032914;28;19924;-68
2022/10/09 03:25:35;;;;;;;;;;;9.50;99.90;;;;;;5033046;28;20319;-68
2022/10/09 03:28:01;;;;;;;;;;;9.60;99.90;;;;;;5035935;28;19963;-68
2022/10/09 03:30:26;;;;;;;;;;;9.60;99.90;;;;;;5043860;28;19935;-68
2022/10/09 03:32:52;;;;;;;;;;;9.60;99.90;;;;;;5031735;28;20397;-67
2022/10/09 03:35:17;;;;;;;;;;;9.60;99.90;;;;;;5032839;28;19905;-68
2022/10/09 03:37:43;;;;;;;;;;;9.60;99.90;;;;;;5032671;28;19909;-69
2022/10/09 03:40:09;;;;;;;;;;;9.60;99.90;;;;;;5033153;28;20365;-67
2022/10/09 03:42:35;;;;;;;;;;;9.50;99.90;;;;;;5032474;28;20354;-67
2022/10/09 03:45:03;;;;;;;;;;;9.50;99.90;;;;;;5030954;28;20011;-68
2022/10/09 03:47:29;;;;;;;;;;;9.50;99.90;;;;;;5032679;28;20297;-68
2022/10/09 03:49:55;;;;;;;;;;;9.50;99.90;;;;;;5032754;28;19908;-68
2022/10/09 03:52:20;;;;;;;;;;;9.50;99.90;;;;;;5032002;28;19995;-67
2022/10/09 03:54:46;;;;;;;;;;;9.50;99.90;;;;;;5032125;28;19924;-68
2022/10/09 03:57:11;;;;;;;;;;;9.50;99.90;;;;;;5031758;28;19909;-68
2022/10/09 03:59:37;;;;;;;;;;;9.40;99.90;;;;;;5030998;28;19909;-68
2022/10/09 04:02:02;;;;;;;;;;;9.40;99.90;;;;;;5030963;28;19917;-69
2022/10/09 04:04:27;;;;;;;;;;;9.40;99.90;;;;;;5033103;28;19905;-69
2022/10/09 04:06:53;;;;;;;;;;;9.40;99.90;;;;;;5034375;28;19916;-69
2022/10/09 04:09:18;;;;;;;;;;;9.40;99.90;;;;;;5040107;28;19917;-68
2022/10/09 04:11:44;;;;;;;;;;;9.40;99.90;;;;;;5041475;28;19920;-68
2022/10/09 04:14:09;;;;;;;;;;;9.40;99.90;;;;;;5041816;28;20429;-68
2022/10/09 04:16:35;;;;;;;;;;;9.40;99.90;;;;;;5036731;28;19974;-68
2022/10/09 04:19:00;;;;;;;;;;;9.30;99.90;;;;;;5041793;28;19912;-69
2022/10/09 04:21:26;;;;;;;;;;;9.30;99.90;;;;;;5040720;28;19937;-68
2022/10/09 04:23:51;;;;;;;;;;;9.30;99.90;;;;;;5040449;28;20294;-68
2022/10/09 04:26:17;;;;;;;;;;;9.30;99.90;;;;;;5043613;28;19998;-67
2022/10/09 04:28:43;;;;;;;;;;;9.30;99.90;;;;;;5033885;28;20282;-68
2022/10/09 04:31:09;;;;;;;;;;;9.30;99.90;;;;;;5031464;28;20339;-68
2022/10/09 04:33:34;;;;;;;;;;;9.30;99.90;;;;;;5030535;28;20412;-68
2022/10/09 04:36:00;;;;;;;;;;;9.30;99.90;;;;;;5031387;28;19932;-68
2022/10/09 04:38:25;;;;;;;;;;;9.40;99.90;;;;;;5031891;28;19905;-68
2022/10/09 04:40:57;;;;;;;;;;;9.40;99.90;;;;;;5031326;28;20259;-68
2022/10/09 04:43:23;;;;;;;;;;;9.30;99.90;;;;;;5031541;28;19917;-68
2022/10/09 04:45:49;;;;;;;;;;;9.30;99.90;;;;;;5032141;28;19912;-68
2022/10/09 04:48:14;;;;;;;;;;;9.30;99.90;;;;;;5030830;28;20413;-69
2022/10/09 04:50:40;;;;;;;;;;;9.30;99.90;;;;;;5031630;28;19913;-69
2022/10/09 04:53:05;;;;;;;;;;;9.30;99.90;;;;;;5047584;28;19908;-67
2022/10/09 04:55:30;;;;;;;;;;;9.20;99.90;;;;;;5032909;28;19963;-69
2022/10/09 04:57:56;;;;;;;;;;;9.20;99.90;;;;;;5031540;28;20005;-68
2022/10/09 05:00:21;;;;;;;;;;;9.20;99.90;;;;;;5031348;28;19920;-68
2022/10/09 05:02:47;;;;;;;;;;;9.20;99.90;;;;;;5031380;28;19951;-68
2022/10/09 05:05:12;;;;;;;;;;;9.10;99.90;;;;;;5030346;28;19915;-68
2022/10/09 05:07:38;;;;;;;;;;;9.10;99.90;;;;;;5030416;28;20231;-68
2022/10/09 05:10:04;;;;;;;;;;;9.10;99.90;;;;;;5031516;28;19909;-68
2022/10/09 05:12:30;;;;;;;;;;;9.10;99.90;;;;;;5031385;28;19968;-68
2022/10/09 05:14:55;;;;;;;;;;;9.00;99.90;;;;;;5031198;28;19959;-68
2022/10/09 05:17:21;;;;;;;;;;;9.00;99.90;;;;;;5031504;28;19912;-68
2022/10/09 05:19:46;;;;;;;;;;;8.90;99.90;;;;;;5029191;28;20719;-68
2022/10/09 05:22:11;;;;;;;;;;;8.90;99.90;;;;;;5031094;28;19924;-68
2022/10/09 05:24:37;;;;;;;;;;;8.80;99.90;;;;;;5031302;28;20386;-68
2022/10/09 05:27:02;;;;;;;;;;;8.80;99.90;;;;;;5024565;28;19909;-69
2022/10/09 05:29:28;;;;;;;;;;;8.80;99.90;;;;;;5031025;28;19909;-68
2022/10/09 05:31:53;;;;;;;;;;;8.80;99.90;;;;;;5029867;28;19905;-68
2022/10/09 05:34:19;;;;;;;;;;;8.80;99.90;;;;;;5030890;28;19917;-68
2022/10/09 05:36:44;;;;;;;;;;;8.70;99.90;;;;;;5030729;28;20004;-68
2022/10/09 05:39:10;;;;;;;;;;;8.70;99.90;;;;;;5031254;28;20733;-69
2022/10/09 05:41:35;;;;;;;;;;;8.70;99.90;;;;;;5030907;28;19963;-68
2022/10/09 05:44:01;;;;;;;;;;;8.70;99.90;;;;;;5030611;28;19913;-68
2022/10/09 05:46:28;;;;;;;;;;;8.70;99.90;;;;;;5030777;28;19912;-69
2022/10/09 05:48:59;;;;;;;;;;;8.70;99.90;;;;;;5031127;28;20412;-69
2022/10/09 05:51:25;;;;;;;;;;;8.70;99.90;;;;;;5030776;28;19999;-68
2022/10/09 05:53:51;;;;;;;;;;;8.70;99.90;;;;;;5030841;28;19955;-68
2022/10/09 05:56:21;;;;;;;;;;;8.70;99.90;;;;;;5030454;28;20286;-68
2022/10/09 05:58:54;;;;;;;;;;;8.70;99.90;;;;;;5030328;28;19944;-68
2022/10/09 06:01:19;;;;;;;;;;;8.70;99.90;;;;;;5029857;28;19917;-68
2022/10/09 06:03:49;;;;;;;;;;;8.70;99.90;;;;;;5030390;28;19920;-68
2022/10/09 06:06:15;;;;;;;;;;;8.70;99.90;;;;;;5030787;28;19909;-68
2022/10/09 06:08:41;;;;;;;;;;;8.70;99.90;;;;;;5030538;28;19915;-67
2022/10/09 06:11:17;;;;;;;;;;;8.70;99.90;;;;;;5028804;28;19917;-68
2022/10/09 06:13:42;;;;;;;;;;;8.70;99.90;;;;;;5030165;28;19935;-68
2022/10/09 06:16:10;;;;;;;;;;;8.70;99.90;;;;;;5030609;28;19908;-68
2022/10/09 06:18:36;;;;;;;;;;;8.80;99.90;;;;;;5029469;28;20323;-68
2022/10/09 06:21:02;;;;;;;;;;;8.80;99.90;;;;;;5034543;28;19958;-69
2022/10/09 06:23:28;;;;;;;;;;;8.80;99.90;;;;;;5033043;28;19921;-68
2022/10/09 06:25:55;;;;;;;;;;;8.80;99.90;;;;;;5034521;28;19909;-69
2022/10/09 06:28:21;;;;;;;;;;;8.80;99.90;;;;;;5034197;28;19912;-69
2022/10/09 06:30:47;;;;;;;;;;;8.90;99.90;;;;;;5027168;28;20390;-69
2022/10/09 06:33:12;;;;;;;;;;;8.90;99.90;;;;;;5034136;28;19905;-69
2022/10/09 06:35:38;;;;;;;;;;;8.90;99.90;;;;;;5033661;28;20050;-68
2022/10/09 06:38:03;;;;;;;;;;;9.00;99.90;;;;;;5031533;28;19920;-67
2022/10/09 06:40:29;;;;;;;;;;;9.00;99.90;;;;;;5034583;28;20261;-68
2022/10/09 06:42:54;;;;;;;;;;;9.00;99.90;;;;;;5033916;28;19928;-67
2022/10/09 06:45:20;;;;;;;;;;;9.10;99.90;;;;;;5033807;28;20309;-69
2022/10/09 06:47:45;;;;;;;;;;;9.10;99.90;;;;;;5034231;28;20322;-68
2022/10/09 06:50:10;;;;;;;;;;;9.10;99.90;;;;;;5032959;28;19986;-67
2022/10/09 06:52:36;;;;;;;;;;;9.20;99.90;;;;;;5034063;28;19916;-67
2022/10/09 06:55:01;;;;;;;;;;;9.20;99.90;;;;;;5032950;28;19963;-69
2022/10/09 06:57:27;;;;;;;;;;;9.20;99.90;;;;;;5031887;28;20251;-67
2022/10/09 06:59:52;;;;;;;;;;;9.30;99.90;;;;;;5032566;28;19959;-68
2022/10/09 07:02:18;;;;;;;;;;;9.40;99.90;;;;;;5032720;28;19925;-68
2022/10/09 07:04:45;;;;;;;;;;;9.40;99.90;;;;;;5033028;28;20344;-68
2022/10/09 07:07:11;;;;;;;;;;;9.50;99.90;;;;;;5032910;28;19908;-68
2022/10/09 07:09:36;;;;;;;;;;;9.60;99.90;;;;;;5032908;28;19932;-69
2022/10/09 07:12:01;;;;;;;;;;;9.60;99.90;;;;;;5032240;28;20007;-68
2022/10/09 07:14:28;;;;;;;;;;;9.70;99.90;;;;;;5030609;28;19913;-68
2022/10/09 07:16:53;;;;;;;;;;;9.80;99.90;;;;;;5033469;28;19959;-68
2022/10/09 07:19:19;;;;;;;;;;;9.80;99.90;;;;;;5032668;28;19917;-68
2022/10/09 07:21:46;;;;;;;;;;;9.90;99.90;;;;;;5032826;28;19992;-68
2022/10/09 07:24:12;;;;;;;;;;;10.00;99.90;;;;;;5033222;28;19909;-68
2022/10/09 07:26:39;;;;;;;;;;;10.10;99.90;;;;;;5033363;28;19920;-68
2022/10/09 07:29:06;;;;;;;;;;;10.20;99.90;;;;;;5032503;28;20008;-68
2022/10/09 07:31:32;;;;;;;;;;;10.20;99.90;;;;;;5031681;28;19909;-68
2022/10/09 07:33:57;;;;;;;;;;;10.30;99.90;;;;;;5032618;28;20409;-68
2022/10/09 07:36:23;;;;;;;;;;;10.50;99.90;;;;;;5032717;28;19962;-68
2022/10/09 07:38:52;;;;;;;;;;;10.50;99.90;;;;;;5031912;28;19940;-68
2022/10/09 07:41:18;;;;;;;;;;;10.60;99.90;;;;;;5033070;28;19905;-68
2022/10/09 07:43:43;;;;;;;;;;;10.70;99.90;;;;;;5032762;28;19917;-68
2022/10/09 07:46:10;;;;;;;;;;;10.80;99.90;;;;;;5032473;28;19952;-68
2022/10/09 07:48:35;;;;;;;;;;;10.90;99.90;;;;;;5032896;28;19986;-67
2022/10/09 07:51:13;;;;;;;;;;;11.00;99.90;;;;;;5031871;28;19979;-67
2022/10/09 07:53:39;;;;;;;;;;;11.10;99.90;;;;;;5031945;28;19909;-67
2022/10/09 07:56:05;;;;;;;;;;;11.30;99.90;;;;;;5032029;28;20373;-68
2022/10/09 07:58:30;;;;;;;;;;;11.40;99.90;;;;;;5032693;28;19913;-68
2022/10/09 08:01:01;;;;;;;;;;;11.60;99.90;;;;;;5031614;28;19984;-68
2022/10/09 08:03:27;;;;;;;;;;;11.90;99.90;;;;;;5032931;28;19924;-68
2022/10/09 08:05:55;;;;;;;;;;;12.10;99.90;;;;;;5032489;28;19936;-68
2022/10/09 08:08:21;;;;;;;;;;;12.40;99.90;;;;;;5031061;28;19943;-68
2022/10/09 08:10:46;;;;;;;;;;;12.80;99.90;;;;;;5032674;28;20465;-68
2022/10/09 08:13:12;;;;;;;;;;;13.30;99.90;;;;;;5031503;28;19948;-68
2022/10/09 08:15:41;;;;;;;;;;;13.60;99.90;;;;;;5032328;28;19917;-68
2022/10/09 08:18:08;;;;;;;;;;;14.20;99.90;;;;;;5032516;28;19912;-68
2022/10/09 08:20:33;;;;;;;;;;;14.90;99.90;;;;;;5032391;28;19909;-68
2022/10/09 08:22:59;;;;;;;;;;;15.50;99.90;;;;;;5032550;28;19938;-68
2022/10/09 08:25:24;;;;;;;;;;;16.20;99.90;;;;;;5031821;28;19913;-68
2022/10/09 08:27:53;;;;;;;;;;;17.20;99.90;;;;;;5032343;28;19909;-69
2022/10/09 08:30:18;;;;;;;;;;;17.80;99.90;;;;;;5031498;28;19908;-69
2022/10/09 08:32:44;;;;;;;;;;;18.40;99.90;;;;;;5031470;28;19963;-69
2022/10/09 08:35:09;;;;;;;;;;;18.80;99.40;;;;;;5032491;28;19908;-67
2022/10/09 08:37:35;;;;;;;;;;;19.50;98.60;;;;;;5031588;28;19917;-67
2022/10/09 08:40:00;;;;;;;;;;;20.00;96.50;;;;;;5031152;28;19917;-67
2022/10/09 08:42:46;;;;;;;;;;;19.90;95.80;;;;;;5031622;28;19939;-67
2022/10/09 08:45:16;;;;;;;;;;;19.80;95.50;;;;;;5011654;28;20358;-68
2022/10/09 08:47:48;;;;;;;;;;;19.80;95.50;;;;;;5013770;28;19905;-68
2022/10/09 08:50:14;;;;;;;;;;;19.80;95.50;;;;;;5012256;28;19905;-68
2022/10/09 08:52:57;;;;;;;;;;;20.20;94.90;;;;;;5013303;28;19983;-68
2022/10/09 08:55:25;;;;;;;;;;;20.30;94.80;;;;;;5032157;28;19909;-68
2022/10/09 08:57:52;;;;;;;;;;;20.90;94.20;;;;;;5032942;28;19908;-68
2022/10/09 09:00:21;;;;;;;;;;;21.60;93.40;;;;;;5042220;28;20346;-68
2022/10/09 09:02:50;;;;;;;;;;;22.00;92.60;;;;;;5042956;28;20471;-68
2022/10/09 09:05:18;;;;;;;;;;;22.60;92.00;;;;;;5040737;28;19908;-68
2022/10/09 09:07:43;;;;;;;;;;;23.10;91.30;;;;;;5041661;28;19992;-68
2022/10/09 09:10:19;;;;;;;;;;;23.40;90.50;;;;;;5040892;28;20336;-68
2022/10/09 09:12:51;;;;;;;;;;;23.30;89.40;;;;;;5043599;28;19932;-68
2022/10/09 09:15:28;;;;;;;;;;;22.90;90.10;;;;;;5041998;28;19920;-68
2022/10/09 09:18:02;;;;;;;;;;;22.60;90.40;;;;;;5039946;28;20364;-68
2022/10/09 09:20:51;;;;;;;;;;;22.70;90.30;;;;;;5040851;28;19913;-68
2022/10/09 09:23:19;;;;;;;;;;;22.70;89.90;;;;;;5020915;28;20348;-68
2022/10/09 09:25:45;;;;;;;;;;;22.70;90.10;;;;;;5042909;28;19912;-68
2022/10/09 09:28:16;;;;;;;;;;;22.70;90.20;;;;;;5039313;28;20293;-68
2022/10/09 09:30:45;;;;;;;;;;;23.00;90.10;;;;;;5040315;28;19908;-69
2022/10/09 09:33:10;;;;;;;;;;;23.10;89.10;;;;;;5043224;28;19913;-69
2022/10/09 09:35:45;;;;;;;;;;;22.80;88.50;;;;;;5041278;28;19983;-68
2022/10/09 09:38:12;;;;;;;;;;;22.70;89.50;;;;;;5040061;28;20043;-69
2022/10/09 09:40:37;;;;;;;;;;;22.70;89.60;;;;;;5042444;28;19947;-68
2022/10/09 09:43:06;;;;;;;;;;;23.00;89.90;;;;;;5039594;28;19956;-69
2022/10/09 09:45:31;;;;;;;;;;;23.60;87.70;;;;;;5040843;28;19924;-68
2022/10/09 09:48:00;;;;;;;;;;;24.30;87.00;;;;;;5042239;28;19930;-69
2022/10/09 09:50:30;;;;;;;;;;;24.90;84.60;;;;;;5042062;28;20010;-68
2022/10/09 09:52:56;;;;;;;;;;;24.90;84.30;;;;;;5036285;28;19908;-67
2022/10/09 09:55:23;;;;;;;;;;;25.20;83.70;;;;;;5041020;28;19916;-68
2022/10/09 09:57:49;;;;;;;;;;;25.70;83.00;;;;;;5037467;28;20000;-67
2022/10/09 10:00:14;;;;;;;;;;;26.00;82.20;;;;;;5033158;28;20000;-68
2022/10/09 10:02:40;;;;;;;;;;;26.30;81.20;;;;;;5032323;28;19995;-68
2022/10/09 10:05:14;;;;;;;;;;;26.40;79.10;;;;;;5032741;28;19944;-68
2022/10/09 10:07:39;;;;;;;;;;;26.20;80.50;;;;;;5032686;28;20397;-68
2022/10/09 10:10:08;;;;;;;;;;;26.40;80.20;;;;;;5032834;28;19909;-68
2022/10/09 10:12:38;;;;;;;;;;;26.50;80.00;;;;;;5032156;28;19917;-67
2022/10/09 10:15:04;;;;;;;;;;;26.80;79.10;;;;;;5031682;28;20066;-68
2022/10/09 10:17:31;;;;;;;;;;;27.00;77.90;;;;;;5032247;28;20405;-68
2022/10/09 10:19:56;;;;;;;;;;;27.00;78.10;;;;;;5032299;28;19920;-67
2022/10/09 10:22:25;;;;;;;;;;;27.20;77.60;;;;;;5032635;28;20274;-68
2022/10/09 10:24:52;;;;;;;;;;;27.00;77.30;;;;;;5032610;28;19909;-68
2022/10/09 10:27:27;;;;;;;;;;;27.10;78.20;;;;;;5032420;28;19952;-68
2022/10/09 10:30:04;;;;;;;;;;;27.10;76.60;;;;;;5030999;28;19932;-68
2022/10/09 10:32:33;;;;;;;;;;;27.30;76.50;;;;;;5032648;28;19944;-68
2022/10/09 10:35:09;;;;;;;;;;;27.40;76.00;;;;;;5032643;28;19967;-67
2022/10/09 10:37:38;;;;;;;;;;;27.50;75.40;;;;;;5031864;28;19909;-68
2022/10/09 10:40:08;;;;;;;;;;;27.70;75.30;;;;;;5029787;28;19941;-68
2022/10/09 10:42:50;;;;;;;;;;;27.40;76.70;;;;;;5032062;28;19913;-67
2022/10/09 10:45:19;;;;;;;;;;;27.40;75.30;;;;;;5031945;28;19913;-68
2022/10/09 10:47:48;;;;;;;;;;;27.10;75.30;;;;;;5030922;28;19905;-68
2022/10/09 10:50:14;;;;;;;;;;;26.90;75.40;;;;;;5032013;28;19916;-68
2022/10/09 10:52:45;;;;;;;;;;;26.50;75.60;;;;;;5031494;28;19909;-68
2022/10/09 10:55:26;;;;;;;;;;;26.40;75.60;;;;;;5031079;28;19905;-67
2022/10/09 10:58:02;;;;;;;;;;;26.10;75.90;;;;;;5024600;28;19956;-67
2022/10/09 11:00:28;;;;;;;;;;;25.70;76.20;;;;;;5031383;28;19955;-68
2022/10/09 11:03:16;;;;;;;;;;;25.70;76.40;;;;;;5031185;28;19921;-67
2022/10/09 11:05:41;;;;;;;;;;;25.70;77.10;;;;;;5034484;28;19909;-68
2022/10/09 11:08:16;;;;;;;;;;;25.90;77.10;;;;;;5035834;28;20377;-67
2022/10/09 11:10:44;;;;;;;;;;;26.10;76.70;;;;;;5034052;28;19917;-67
2022/10/09 11:13:16;;;;;;;;;;;26.30;75.20;;;;;;5035056;28;19961;-67
2022/10/09 11:15:42;;;;;;;;;;;25.90;76.20;;;;;;5035738;28;19920;-67
2022/10/09 11:18:17;;;;;;;;;;;25.40;76.40;;;;;;5035740;28;19917;-68
2022/10/09 11:20:58;;;;;;;;;;;25.30;75.90;;;;;;5035537;28;19959;-68
2022/10/09 11:23:39;;;;;;;;;;;25.10;76.50;;;;;;5035203;28;19917;-67
2022/10/09 11:26:10;;;;;;;;;;;25.30;76.30;;;;;;5035803;28;19908;-68
2022/10/09 11:28:41;;;;;;;;;;;25.60;76.60;;;;;;5038119;28;19905;-68
2022/10/09 11:31:15;;;;;;;;;;;25.80;75.70;;;;;;5035442;28;20035;-68
2022/10/09 11:33:43;;;;;;;;;;;25.80;76.50;;;;;;5030129;28;19967;-68
2022/10/09 11:36:15;;;;;;;;;;;25.80;75.20;;;;;;5035719;28;19905;-67
2022/10/09 11:39:01;;;;;;;;;;;25.80;75.30;;;;;;5035924;28;19953;-67
2022/10/09 11:41:27;;;;;;;;;;;25.80;75.50;;;;;;5035024;28;19987;-68
2022/10/09 11:44:11;;;;;;;;;;;25.60;74.70;;;;;;5035303;28;19917;-67
2022/10/09 11:46:42;;;;;;;;;;;25.20;75.40;;;;;;5035468;28;19905;-69
2022/10/09 11:49:15;;;;;;;;;;;25.00;75.20;;;;;;5035305;28;19908;-68
2022/10/09 11:51:50;;;;;;;;;;;25.00;75.80;;;;;;5035151;28;19909;-67
2022/10/09 11:54:17;;;;;;;;;;;25.10;75.30;;;;;;5035022;28;19996;-70
2022/10/09 11:56:52;;;;;;;;;;;25.40;75.30;;;;;;5035789;28;19913;-68
2022/10/09 11:59:22;;;;;;;;;;;25.10;75.10;;;;;;5035367;28;19975;-69
2022/10/09 12:01:47;;;;;;;;;;;25.10;73.80;;;;;;5034805;28;20407;-69
2022/10/09 12:04:14;;;;;;;;;;;25.10;72.20;;;;;;5033895;28;19917;-69
2022/10/09 12:06:48;;;;;;;;;;;24.80;73.90;;;;;;5034854;28;19905;-70
2022/10/09 12:09:19;;;;;;;;;;;25.10;73.00;;;;;;5034768;28;19913;-67
2022/10/09 12:12:14;;;;;;;;;;;25.30;72.20;;;;;;5034878;28;19924;-67
2022/10/09 12:14:41;;;;;;;;;;;24.70;72.60;;;;;;5024119;28;19909;-67
2022/10/09 12:17:21;;;;;;;;;;;24.30;74.90;;;;;;5034617;28;19905;-68
2022/10/09 12:19:52;;;;;;;;;;;23.90;74.40;;;;;;5034905;28;19905;-68
2022/10/09 12:22:22;;;;;;;;;;;23.90;76.10;;;;;;5034689;28;19913;-69
2022/10/09 12:24:52;;;;;;;;;;;24.10;74.00;;;;;;5034525;28;19909;-69
2022/10/09 12:27:20;;;;;;;;;;;24.10;74.10;;;;;;5034999;28;20377;-69
2022/10/09 12:29:49;;;;;;;;;;;24.40;72.90;;;;;;5034779;28;19912;-68
2022/10/09 12:32:24;;;;;;;;;;;24.70;73.00;;;;;;5030412;28;19913;-69
2022/10/09 12:34:50;;;;;;;;;;;25.10;72.30;;;;;;5034654;28;19911;-69
2022/10/09 12:37:17;;;;;;;;;;;25.30;71.60;;;;;;5033632;28;19905;-68
2022/10/09 12:39:43;;;;;;;;;;;25.40;70.70;;;;;;5034205;28;19905;-68
2022/10/09 12:42:14;;;;;;;;;;;25.00;72.30;;;;;;5033675;28;19919;-68
2022/10/09 12:44:39;;;;;;;;;;;24.80;72.00;;;;;;5034210;28;19909;-68
2022/10/09 12:47:07;;;;;;;;;;;24.30;73.40;;;;;;5032989;28;19916;-69
2022/10/09 12:49:32;;;;;;;;;;;24.00;73.30;;;;;;5033885;28;19905;-69
2022/10/09 12:51:59;;;;;;;;;;;23.90;74.30;;;;;;5033103;28;19924;-69
2022/10/09 12:54:25;;;;;;;;;;;24.00;74.20;;;;;;5033884;28;19908;-68
2022/10/09 12:56:55;;;;;;;;;;;23.90;73.90;;;;;;5033469;28;19909;-68
2022/10/09 12:59:21;;;;;;;;;;;23.60;75.00;;;;;;5033567;28;20027;-69
2022/10/09 13:01:49;;;;;;;;;;;23.40;73.60;;;;;;5033201;28;20003;-69
2022/10/09 13:04:23;;;;;;;;;;;23.20;74.90;;;;;;5033685;28;20036;-68
2022/10/09 13:06:49;;;;;;;;;;;22.90;74.50;;;;;;5033284;28;19917;-69
2022/10/09 13:09:21;;;;;;;;;;;22.60;75.60;;;;;;5033125;28;19909;-68
2022/10/09 13:11:50;;;;;;;;;;;22.30;75.50;;;;;;5032780;28;19971;-69
2022/10/09 13:14:24;;;;;;;;;;;22.00;75.10;;;;;;5033427;28;20457;-67
2022/10/09 13:16:50;;;;;;;;;;;21.70;76.30;;;;;;5032818;28;20384;-69
2022/10/09 13:19:20;;;;;;;;;;;21.50;76.00;;;;;;5033186;28;19956;-70
2022/10/09 13:21:58;;;;;;;;;;;21.20;77.50;;;;;;5033003;28;19909;-68
2022/10/09 13:24:23;;;;;;;;;;;21.00;77.60;;;;;;5024969;28;20055;-69
2022/10/09 13:26:49;;;;;;;;;;;20.90;78.20;;;;;;5032850;28;19995;-68
2022/10/09 13:29:14;;;;;;;;;;;20.60;78.30;;;;;;5028651;28;20397;-69
2022/10/09 13:31:43;;;;;;;;;;;20.50;79.10;;;;;;5031597;28;19913;-68
2022/10/09 13:34:10;;;;;;;;;;;20.40;80.00;;;;;;5032783;28;19912;-68
2022/10/09 13:36:35;;;;;;;;;;;20.30;80.50;;;;;;5032959;28;19905;-68
2022/10/09 13:39:01;;;;;;;;;;;20.20;81.00;;;;;;5032209;28;19909;-68
2022/10/09 13:41:26;;;;;;;;;;;20.10;80.40;;;;;;5032840;28;19905;-68
2022/10/09 13:43:52;;;;;;;;;;;19.90;80.80;;;;;;5031863;28;20456;-68
2022/10/09 13:46:18;;;;;;;;;;;19.70;81.00;;;;;;5032517;28;19952;-69
2022/10/09 13:48:43;;;;;;;;;;;19.60;82.20;;;;;;5031441;28;19952;-67
2022/10/09 13:51:09;;;;;;;;;;;19.40;82.10;;;;;;5031342;28;19913;-68
2022/10/09 13:53:35;;;;;;;;;;;19.30;82.50;;;;;;5030931;28;19912;-68
2022/10/09 13:56:00;;;;;;;;;;;19.20;83.50;;;;;;5032411;28;19978;-68
2022/10/09 13:58:26;;;;;;;;;;;19.20;83.70;;;;;;5032437;28;20355;-68
2022/10/09 14:00:51;;;;;;;;;;;19.10;83.50;;;;;;5034524;28;20404;-68
2022/10/09 14:03:17;;;;;;;;;;;19.00;84.30;;;;;;5040925;28;19920;-69
2022/10/09 14:05:43;;;;;;;;;;;19.00;84.30;;;;;;5033240;28;20259;-69
2022/10/09 14:08:09;;;;;;;;;;;19.00;84.80;;;;;;5039077;28;20354;-68
2022/10/09 14:10:35;;;;;;;;;;;19.00;85.00;;;;;;5053124;28;19917;-69
2022/10/09 14:13:00;;;;;;;;;;;19.10;84.90;;;;;;5041641;28;19916;-68
2022/10/09 14:15:26;;;;;;;;;;;19.10;85.00;;;;;;5039279;28;19949;-68
2022/10/09 14:17:51;;;;;;;;;;;19.20;84.30;;;;;;5038764;28;19905;-68
2022/10/09 14:20:17;;;;;;;;;;;19.30;84.10;;;;;;5041083;28;20374;-68
2022/10/09 14:22:42;;;;;;;;;;;19.30;84.30;;;;;;5039403;28;19921;-69
2022/10/09 14:25:08;;;;;;;;;;;19.30;85.20;;;;;;5040626;28;19912;-69
2022/10/09 14:27:34;;;;;;;;;;;19.30;85.10;;;;;;5039822;28;19905;-69